sensor_id;sensor_type;location;lat;lon;timestamp;temperature;humidity
2913;DHT22;1466;48.778;9.166;2023-06-14T00:00:40;20.70;56.50
2913;DHT22;1466;48.778;9.166;2023-06-14T00:03:09;20.60;56.60
2913;DHT22;1466;48.778;9.166;2023-06-14T00:05:36;20.60;56.70
2913;DHT22;1466;48.778;9.166;2023-06-14T00:08:11;20.60;56.90
2913;DHT22;1466;48.778;9.166;2023-06-14T00:10:38;20.50;57.10
2913;DHT22;1466;48.778;9.166;2023-06-14T00:13:06;20.50;57.40
2913;DHT22;1466;48.778;9.166;2023-06-14T00:15:32;20.50;57.60
2913;DHT22;1466;48.778;9.166;2023-06-14T00:17:58;20.40;57.80
2913;DHT22;1466;48.778;9.166;2023-06-14T00:20:31;20.50;58.00
2913;DHT22;1466;48.778;9.166;2023-06-14T00:22:58;20.50;57.90
2913;DHT22;1466;48.778;9.166;2023-06-14T00:25:24;20.60;58.00
2913;DHT22;1466;48.778;9.166;2023-06-14T00:27:54;20.50;58.10
2913;DHT22;1466;48.778;9.166;2023-06-14T00:30:20;20.40;58.20
2913;DHT22;1466;48.778;9.166;2023-06-14T00:32:46;20.40;58.10
2913;DHT22;1466;48.778;9.166;2023-06-14T00:35:12;20.30;58.00
2913;DHT22;1466;48.778;9.166;2023-06-14T00:37:38;20.30;58.10
2913;DHT22;1466;48.778;9.166;2023-06-14T00:40:04;20.30;58.10
2913;DHT22;1466;48.778;9.166;2023-06-14T00:42:30;20.20;58.60
2913;DHT22;1466;48.778;9.166;2023-06-14T00:44:56;20.00;59.00
2913;DHT22;1466;48.778;9.166;2023-06-14T00:47:22;19.90;59.30
2913;DHT22;1466;48.778;9.166;2023-06-14T00:49:49;20.00;59.40
2913;DHT22;1466;48.778;9.166;2023-06-14T00:52:17;20.00;59.20
2913;DHT22;1466;48.778;9.166;2023-06-14T00:54:43;20.20;59.20
2913;DHT22;1466;48.778;9.166;2023-06-14T00:57:09;20.30;59.10
2913;DHT22;1466;48.778;9.166;2023-06-14T00:59:41;20.30;59.10
2913;DHT22;1466;48.778;9.166;2023-06-14T01:02:08;20.20;59.10
2913;DHT22;1466;48.778;9.166;2023-06-14T01:04:33;20.20;59.30
2913;DHT22;1466;48.778;9.166;2023-06-14T01:07:02;20.30;59.30
2913;DHT22;1466;48.778;9.166;2023-06-14T01:09:46;20.10;59.60
2913;DHT22;1466;48.778;9.166;2023-06-14T01:12:24;19.90;60.00
2913;DHT22;1466;48.778;9.166;2023-06-14T01:14:54;19.90;60.40
2913;DHT22;1466;48.778;9.166;2023-06-14T01:17:21;19.90;60.50
2913;DHT22;1466;48.778;9.166;2023-06-14T01:19:48;19.80;60.50
2913;DHT22;1466;48.778;9.166;2023-06-14T01:22:14;19.80;60.60
2913;DHT22;1466;48.778;9.166;2023-06-14T01:24:40;19.80;61.40
2913;DHT22;1466;48.778;9.166;2023-06-14T01:27:10;19.80;60.70
2913;DHT22;1466;48.778;9.166;2023-06-14T01:29:36;19.80;60.90
2913;DHT22;1466;48.778;9.166;2023-06-14T01:32:03;19.80;60.90
2913;DHT22;1466;48.778;9.166;2023-06-14T01:34:29;19.80;60.90
2913;DHT22;1466;48.778;9.166;2023-06-14T01:36:55;19.90;61.00
2913;DHT22;1466;48.778;9.166;2023-06-14T01:39:22;20.00;60.90
2913;DHT22;1466;48.778;9.166;2023-06-14T01:41:49;19.90;60.90
2913;DHT22;1466;48.778;9.166;2023-06-14T01:44:16;19.90;60.90
2913;DHT22;1466;48.778;9.166;2023-06-14T01:46:43;20.00;60.90
2913;DHT22;1466;48.778;9.166;2023-06-14T01:49:09;20.00;60.90
2913;DHT22;1466;48.778;9.166;2023-06-14T01:51:34;20.00;60.70
2913;DHT22;1466;48.778;9.166;2023-06-14T01:54:00;19.90;60.70
2913;DHT22;1466;48.778;9.166;2023-06-14T01:56:26;19.80;60.70
2913;DHT22;1466;48.778;9.166;2023-06-14T01:58:52;19.70;60.80
2913;DHT22;1466;48.778;9.166;2023-06-14T02:01:19;19.60;60.80
2913;DHT22;1466;48.778;9.166;2023-06-14T02:03:47;19.50;61.00
2913;DHT22;1466;48.778;9.166;2023-06-14T02:06:13;19.50;61.30
2913;DHT22;1466;48.778;9.166;2023-06-14T02:08:39;19.40;61.20
2913;DHT22;1466;48.778;9.166;2023-06-14T02:11:05;19.40;61.30
2913;DHT22;1466;48.778;9.166;2023-06-14T02:13:30;19.30;61.40
2913;DHT22;1466;48.778;9.166;2023-06-14T02:15:56;19.30;61.40
2913;DHT22;1466;48.778;9.166;2023-06-14T02:18:23;19.30;61.40
2913;DHT22;1466;48.778;9.166;2023-06-14T02:20:48;19.30;61.50
2913;DHT22;1466;48.778;9.166;2023-06-14T02:23:14;19.20;61.60
2913;DHT22;1466;48.778;9.166;2023-06-14T02:25:40;19.20;61.70
2913;DHT22;1466;48.778;9.166;2023-06-14T02:28:05;19.10;61.70
2913;DHT22;1466;48.778;9.166;2023-06-14T02:30:31;19.10;61.90
2913;DHT22;1466;48.778;9.166;2023-06-14T02:32:57;19.00;61.90
2913;DHT22;1466;48.778;9.166;2023-06-14T02:35:22;19.00;62.00
2913;DHT22;1466;48.778;9.166;2023-06-14T02:37:52;19.10;62.00
2913;DHT22;1466;48.778;9.166;2023-06-14T02:40:18;19.10;61.90
2913;DHT22;1466;48.778;9.166;2023-06-14T02:42:43;19.10;61.80
2913;DHT22;1466;48.778;9.166;2023-06-14T02:45:09;19.00;61.60
2913;DHT22;1466;48.778;9.166;2023-06-14T02:47:35;19.00;61.60
2913;DHT22;1466;48.778;9.166;2023-06-14T02:50:01;18.80;61.60
2913;DHT22;1466;48.778;9.166;2023-06-14T02:52:28;18.80;61.90
2913;DHT22;1466;48.778;9.166;2023-06-14T02:54:54;18.80;62.00
2913;DHT22;1466;48.778;9.166;2023-06-14T02:57:22;18.80;62.00
2913;DHT22;1466;48.778;9.166;2023-06-14T02:59:48;18.70;62.10
2913;DHT22;1466;48.778;9.166;2023-06-14T03:02:14;18.70;62.50
2913;DHT22;1466;48.778;9.166;2023-06-14T03:04:40;18.60;62.70
2913;DHT22;1466;48.778;9.166;2023-06-14T03:07:06;18.50;62.90
2913;DHT22;1466;48.778;9.166;2023-06-14T03:09:37;18.50;63.00
2913;DHT22;1466;48.778;9.166;2023-06-14T03:12:04;18.50;63.10
2913;DHT22;1466;48.778;9.166;2023-06-14T03:14:32;18.50;63.30
2913;DHT22;1466;48.778;9.166;2023-06-14T03:16:58;18.50;63.40
2913;DHT22;1466;48.778;9.166;2023-06-14T03:19:24;18.70;64.30
2913;DHT22;1466;48.778;9.166;2023-06-14T03:21:51;18.70;63.50
2913;DHT22;1466;48.778;9.166;2023-06-14T03:24:16;18.70;63.60
2913;DHT22;1466;48.778;9.166;2023-06-14T03:26:42;18.70;64.30
2913;DHT22;1466;48.778;9.166;2023-06-14T03:29:08;18.60;63.80
2913;DHT22;1466;48.778;9.166;2023-06-14T03:31:34;18.60;63.70
2913;DHT22;1466;48.778;9.166;2023-06-14T03:34:00;18.50;63.70
2913;DHT22;1466;48.778;9.166;2023-06-14T03:36:26;18.50;64.00
2913;DHT22;1466;48.778;9.166;2023-06-14T03:38:53;18.40;64.10
2913;DHT22;1466;48.778;9.166;2023-06-14T03:41:19;18.40;64.10
2913;DHT22;1466;48.778;9.166;2023-06-14T03:43:45;18.40;64.10
2913;DHT22;1466;48.778;9.166;2023-06-14T03:46:11;18.50;64.10
2913;DHT22;1466;48.778;9.166;2023-06-14T03:48:36;18.50;64.10
2913;DHT22;1466;48.778;9.166;2023-06-14T03:51:02;18.50;64.20
2913;DHT22;1466;48.778;9.166;2023-06-14T03:53:28;18.50;64.10
2913;DHT22;1466;48.778;9.166;2023-06-14T03:55:55;18.50;64.30
2913;DHT22;1466;48.778;9.166;2023-06-14T03:58:20;18.40;64.10
2913;DHT22;1466;48.778;9.166;2023-06-14T04:00:46;18.40;64.20
2913;DHT22;1466;48.778;9.166;2023-06-14T04:03:12;18.40;64.10
2913;DHT22;1466;48.778;9.166;2023-06-14T04:05:41;18.40;64.00
2913;DHT22;1466;48.778;9.166;2023-06-14T04:08:10;18.40;64.10
2913;DHT22;1466;48.778;9.166;2023-06-14T04:10:36;18.50;64.00
2913;DHT22;1466;48.778;9.166;2023-06-14T04:13:01;18.50;64.00
2913;DHT22;1466;48.778;9.166;2023-06-14T04:15:27;18.40;64.10
2913;DHT22;1466;48.778;9.166;2023-06-14T04:17:54;18.40;64.40
2913;DHT22;1466;48.778;9.166;2023-06-14T04:20:22;18.50;64.40
2913;DHT22;1466;48.778;9.166;2023-06-14T04:22:49;18.60;64.20
2913;DHT22;1466;48.778;9.166;2023-06-14T04:25:15;18.70;64.10
2913;DHT22;1466;48.778;9.166;2023-06-14T04:27:41;18.80;64.10
2913;DHT22;1466;48.778;9.166;2023-06-14T04:30:07;18.80;64.00
2913;DHT22;1466;48.778;9.166;2023-06-14T04:32:33;18.80;63.90
2913;DHT22;1466;48.778;9.166;2023-06-14T04:34:59;18.70;63.90
2913;DHT22;1466;48.778;9.166;2023-06-14T04:37:27;18.80;64.20
2913;DHT22;1466;48.778;9.166;2023-06-14T04:39:55;18.80;64.10
2913;DHT22;1466;48.778;9.166;2023-06-14T04:42:24;18.90;64.20
2913;DHT22;1466;48.778;9.166;2023-06-14T04:44:56;18.90;64.00
2913;DHT22;1466;48.778;9.166;2023-06-14T04:47:22;18.90;64.20
2913;DHT22;1466;48.778;9.166;2023-06-14T04:49:50;18.90;64.20
2913;DHT22;1466;48.778;9.166;2023-06-14T04:52:17;18.90;64.30
2913;DHT22;1466;48.778;9.166;2023-06-14T04:54:46;18.90;64.60
2913;DHT22;1466;48.778;9.166;2023-06-14T04:57:12;18.90;64.50
2913;DHT22;1466;48.778;9.166;2023-06-14T04:59:42;18.80;64.70
2913;DHT22;1466;48.778;9.166;2023-06-14T05:02:10;18.70;64.80
2913;DHT22;1466;48.778;9.166;2023-06-14T05:04:35;18.50;65.00
2913;DHT22;1466;48.778;9.166;2023-06-14T05:07:06;18.40;65.10
2913;DHT22;1466;48.778;9.166;2023-06-14T05:09:32;18.50;65.40
2913;DHT22;1466;48.778;9.166;2023-06-14T05:11:58;18.60;65.50
2913;DHT22;1466;48.778;9.166;2023-06-14T05:14:25;18.70;65.40
2913;DHT22;1466;48.778;9.166;2023-06-14T05:16:52;18.80;65.20
2913;DHT22;1466;48.778;9.166;2023-06-14T05:19:18;18.90;65.30
2913;DHT22;1466;48.778;9.166;2023-06-14T05:21:46;18.90;65.20
2913;DHT22;1466;48.778;9.166;2023-06-14T05:24:13;19.00;65.00
2913;DHT22;1466;48.778;9.166;2023-06-14T05:26:39;19.10;64.90
2913;DHT22;1466;48.778;9.166;2023-06-14T05:29:04;19.20;64.70
2913;DHT22;1466;48.778;9.166;2023-06-14T05:31:30;19.20;64.70
2913;DHT22;1466;48.778;9.166;2023-06-14T05:33:56;19.30;64.60
2913;DHT22;1466;48.778;9.166;2023-06-14T05:36:22;19.40;64.70
2913;DHT22;1466;48.778;9.166;2023-06-14T05:38:47;19.20;64.40
2913;DHT22;1466;48.778;9.166;2023-06-14T05:41:13;19.00;64.90
2913;DHT22;1466;48.778;9.166;2023-06-14T05:43:39;18.80;65.60
2913;DHT22;1466;48.778;9.166;2023-06-14T05:46:05;18.90;65.70
2913;DHT22;1466;48.778;9.166;2023-06-14T05:48:30;18.80;65.50
2913;DHT22;1466;48.778;9.166;2023-06-14T05:50:56;18.80;65.50
2913;DHT22;1466;48.778;9.166;2023-06-14T05:53:22;18.80;65.50
2913;DHT22;1466;48.778;9.166;2023-06-14T05:55:49;18.90;65.50
2913;DHT22;1466;48.778;9.166;2023-06-14T05:58:15;19.00;65.50
2913;DHT22;1466;48.778;9.166;2023-06-14T06:00:41;19.00;65.30
2913;DHT22;1466;48.778;9.166;2023-06-14T06:03:06;19.10;65.40
2913;DHT22;1466;48.778;9.166;2023-06-14T06:05:36;19.20;65.30
2913;DHT22;1466;48.778;9.166;2023-06-14T06:08:02;19.40;65.10
2913;DHT22;1466;48.778;9.166;2023-06-14T06:10:27;19.50;64.70
2913;DHT22;1466;48.778;9.166;2023-06-14T06:12:53;19.60;64.30
2913;DHT22;1466;48.778;9.166;2023-06-14T06:15:20;19.60;64.00
2913;DHT22;1466;48.778;9.166;2023-06-14T06:17:46;19.50;64.20
2913;DHT22;1466;48.778;9.166;2023-06-14T06:20:12;19.50;64.50
2913;DHT22;1466;48.778;9.166;2023-06-14T06:22:38;19.50;64.60
2913;DHT22;1466;48.778;9.166;2023-06-14T06:25:03;19.40;64.80
2913;DHT22;1466;48.778;9.166;2023-06-14T06:27:29;19.50;65.20
2913;DHT22;1466;48.778;9.166;2023-06-14T06:29:55;19.60;65.10
2913;DHT22;1466;48.778;9.166;2023-06-14T06:32:21;19.80;65.00
2913;DHT22;1466;48.778;9.166;2023-06-14T06:34:47;19.90;63.80
2913;DHT22;1466;48.778;9.166;2023-06-14T06:37:13;19.90;63.50
2913;DHT22;1466;48.778;9.166;2023-06-14T06:39:39;20.00;63.40
2913;DHT22;1466;48.778;9.166;2023-06-14T06:42:04;20.10;63.00
2913;DHT22;1466;48.778;9.166;2023-06-14T06:44:30;20.20;63.00
2913;DHT22;1466;48.778;9.166;2023-06-14T06:46:57;20.40;63.30
2913;DHT22;1466;48.778;9.166;2023-06-14T06:49:23;20.50;63.20
2913;DHT22;1466;48.778;9.166;2023-06-14T06:52:18;20.60;63.00
2913;DHT22;1466;48.778;9.166;2023-06-14T06:54:43;20.50;62.60
2913;DHT22;1466;48.778;9.166;2023-06-14T06:57:09;20.40;62.70
2913;DHT22;1466;48.778;9.166;2023-06-14T06:59:36;20.40;63.10
2913;DHT22;1466;48.778;9.166;2023-06-14T07:02:02;20.50;63.20
2913;DHT22;1466;48.778;9.166;2023-06-14T07:04:27;20.60;63.30
2913;DHT22;1466;48.778;9.166;2023-06-14T07:06:53;20.60;63.70
2913;DHT22;1466;48.778;9.166;2023-06-14T07:09:18;20.70;63.80
2913;DHT22;1466;48.778;9.166;2023-06-14T07:11:45;20.60;63.50
2913;DHT22;1466;48.778;9.166;2023-06-14T07:14:11;20.60;63.30
2913;DHT22;1466;48.778;9.166;2023-06-14T07:16:38;20.60;63.10
2913;DHT22;1466;48.778;9.166;2023-06-14T07:19:04;20.70;63.00
2913;DHT22;1466;48.778;9.166;2023-06-14T07:21:29;20.80;62.70
2913;DHT22;1466;48.778;9.166;2023-06-14T07:23:56;20.70;62.20
2913;DHT22;1466;48.778;9.166;2023-06-14T07:26:22;20.90;62.40
2913;DHT22;1466;48.778;9.166;2023-06-14T07:28:49;21.00;62.00
2913;DHT22;1466;48.778;9.166;2023-06-14T07:31:17;21.10;61.80
2913;DHT22;1466;48.778;9.166;2023-06-14T07:33:44;21.30;61.60
2913;DHT22;1466;48.778;9.166;2023-06-14T07:36:10;21.40;61.30
2913;DHT22;1466;48.778;9.166;2023-06-14T07:38:36;21.40;60.50
2913;DHT22;1466;48.778;9.166;2023-06-14T07:41:02;21.30;60.20
2913;DHT22;1466;48.778;9.166;2023-06-14T07:43:28;21.10;60.00
2913;DHT22;1466;48.778;9.166;2023-06-14T07:45:53;21.30;60.40
2913;DHT22;1466;48.778;9.166;2023-06-14T07:48:19;21.30;60.80
2913;DHT22;1466;48.778;9.166;2023-06-14T07:50:44;21.40;60.60
2913;DHT22;1466;48.778;9.166;2023-06-14T07:53:10;21.50;60.60
2913;DHT22;1466;48.778;9.166;2023-06-14T07:55:36;21.40;61.00
2913;DHT22;1466;48.778;9.166;2023-06-14T07:58:08;21.30;61.30
2913;DHT22;1466;48.778;9.166;2023-06-14T08:00:34;21.20;61.80
2913;DHT22;1466;48.778;9.166;2023-06-14T08:03:00;21.40;62.20
2913;DHT22;1466;48.778;9.166;2023-06-14T08:05:26;21.50;62.20
2913;DHT22;1466;48.778;9.166;2023-06-14T08:07:52;21.70;61.20
2913;DHT22;1466;48.778;9.166;2023-06-14T08:10:18;21.60;60.70
2913;DHT22;1466;48.778;9.166;2023-06-14T08:12:43;21.50;60.90
2913;DHT22;1466;48.778;9.166;2023-06-14T08:15:09;21.70;61.20
2913;DHT22;1466;48.778;9.166;2023-06-14T08:17:35;21.80;62.00
2913;DHT22;1466;48.778;9.166;2023-06-14T08:20:01;22.00;61.50
2913;DHT22;1466;48.778;9.166;2023-06-14T08:22:28;22.10;61.70
2913;DHT22;1466;48.778;9.166;2023-06-14T08:24:57;22.10;61.50
2913;DHT22;1466;48.778;9.166;2023-06-14T08:27:23;22.20;62.30
2913;DHT22;1466;48.778;9.166;2023-06-14T08:29:49;22.30;61.80
2913;DHT22;1466;48.778;9.166;2023-06-14T08:32:15;22.40;61.90
2913;DHT22;1466;48.778;9.166;2023-06-14T08:34:40;22.40;62.00
2913;DHT22;1466;48.778;9.166;2023-06-14T08:37:06;22.20;62.60
2913;DHT22;1466;48.778;9.166;2023-06-14T08:39:33;22.30;62.80
2913;DHT22;1466;48.778;9.166;2023-06-14T08:42:01;22.40;62.70
2913;DHT22;1466;48.778;9.166;2023-06-14T08:44:26;22.50;62.60
2913;DHT22;1466;48.778;9.166;2023-06-14T08:46:53;22.60;62.50
2913;DHT22;1466;48.778;9.166;2023-06-14T08:49:21;22.60;62.60
2913;DHT22;1466;48.778;9.166;2023-06-14T08:51:47;22.70;62.70
2913;DHT22;1466;48.778;9.166;2023-06-14T08:54:17;22.80;62.50
2913;DHT22;1466;48.778;9.166;2023-06-14T08:56:46;23.00;61.90
2913;DHT22;1466;48.778;9.166;2023-06-14T08:59:13;23.10;61.20
2913;DHT22;1466;48.778;9.166;2023-06-14T09:01:40;23.10;60.90
2913;DHT22;1466;48.778;9.166;2023-06-14T09:04:06;23.10;60.60
2913;DHT22;1466;48.778;9.166;2023-06-14T09:06:32;23.10;61.00
2913;DHT22;1466;48.778;9.166;2023-06-14T09:08:58;23.10;61.10
2913;DHT22;1466;48.778;9.166;2023-06-14T09:11:24;23.20;61.10
2913;DHT22;1466;48.778;9.166;2023-06-14T09:13:51;23.30;60.60
2913;DHT22;1466;48.778;9.166;2023-06-14T09:16:17;23.30;60.60
2913;DHT22;1466;48.778;9.166;2023-06-14T09:18:45;23.30;60.80
2913;DHT22;1466;48.778;9.166;2023-06-14T09:21:14;23.50;61.00
2913;DHT22;1466;48.778;9.166;2023-06-14T09:23:44;23.60;60.80
2913;DHT22;1466;48.778;9.166;2023-06-14T09:26:15;23.60;60.60
2913;DHT22;1466;48.778;9.166;2023-06-14T09:28:42;23.50;60.50
2913;DHT22;1466;48.778;9.166;2023-06-14T09:31:09;23.60;60.20
2913;DHT22;1466;48.778;9.166;2023-06-14T09:33:35;23.50;59.60
2913;DHT22;1466;48.778;9.166;2023-06-14T09:36:01;23.60;59.70
2913;DHT22;1466;48.778;9.166;2023-06-14T09:38:26;23.80;60.00
2913;DHT22;1466;48.778;9.166;2023-06-14T09:40:52;24.00;60.30
2913;DHT22;1466;48.778;9.166;2023-06-14T09:43:19;25.00;59.20
2913;DHT22;1466;48.778;9.166;2023-06-14T09:45:47;26.20;56.90
2913;DHT22;1466;48.778;9.166;2023-06-14T09:48:14;27.00;55.00
2913;DHT22;1466;48.778;9.166;2023-06-14T09:50:46;27.30;54.70
2913;DHT22;1466;48.778;9.166;2023-06-14T09:53:13;27.80;54.40
2913;DHT22;1466;48.778;9.166;2023-06-14T09:55:41;28.00;54.00
2913;DHT22;1466;48.778;9.166;2023-06-14T09:58:08;27.70;53.70
2913;DHT22;1466;48.778;9.166;2023-06-14T10:00:36;27.60;53.20
2913;DHT22;1466;48.778;9.166;2023-06-14T10:03:21;27.50;53.40
2913;DHT22;1466;48.778;9.166;2023-06-14T10:05:48;27.20;52.70
2913;DHT22;1466;48.778;9.166;2023-06-14T10:08:17;26.80;53.30
2913;DHT22;1466;48.778;9.166;2023-06-14T10:10:43;26.70;54.10
2913;DHT22;1466;48.778;9.166;2023-06-14T10:13:10;26.70;54.70
2913;DHT22;1466;48.778;9.166;2023-06-14T10:15:48;26.50;54.40
2913;DHT22;1466;48.778;9.166;2023-06-14T10:18:30;26.20;54.00
2913;DHT22;1466;48.778;9.166;2023-06-14T10:21:13;25.90;54.20
2913;DHT22;1466;48.778;9.166;2023-06-14T10:23:43;25.90;54.20
2913;DHT22;1466;48.778;9.166;2023-06-14T10:26:18;25.50;54.80
2913;DHT22;1466;48.778;9.166;2023-06-14T10:29:01;25.00;55.20
2913;DHT22;1466;48.778;9.166;2023-06-14T10:31:56;24.60;55.80
2913;DHT22;1466;48.778;9.166;2023-06-14T10:37:06;24.40;55.50
2913;DHT22;1466;48.778;9.166;2023-06-14T10:42:09;24.40;56.70
2913;DHT22;1466;48.778;9.166;2023-06-14T10:44:51;24.30;56.90
2913;DHT22;1466;48.778;9.166;2023-06-14T10:50:04;24.70;56.40
2913;DHT22;1466;48.778;9.166;2023-06-14T10:52:33;24.80;55.90
2913;DHT22;1466;48.778;9.166;2023-06-14T10:57:36;25.30;55.10
2913;DHT22;1466;48.778;9.166;2023-06-14T11:00:03;25.30;54.40
2913;DHT22;1466;48.778;9.166;2023-06-14T11:05:29;25.30;53.80
2913;DHT22;1466;48.778;9.166;2023-06-14T11:10:39;25.70;53.40
2913;DHT22;1466;48.778;9.166;2023-06-14T11:13:06;26.00;53.30
2913;DHT22;1466;48.778;9.166;2023-06-14T11:15:36;26.10;52.70
2913;DHT22;1466;48.778;9.166;2023-06-14T11:18:06;26.20;52.30
2913;DHT22;1466;48.778;9.166;2023-06-14T11:20:33;26.30;52.30
2913;DHT22;1466;48.778;9.166;2023-06-14T11:23:00;26.40;52.20
2913;DHT22;1466;48.778;9.166;2023-06-14T11:25:26;26.40;52.00
2913;DHT22;1466;48.778;9.166;2023-06-14T11:27:53;26.20;51.10
2913;DHT22;1466;48.778;9.166;2023-06-14T11:30:19;26.00;51.10
2913;DHT22;1466;48.778;9.166;2023-06-14T11:32:49;25.80;51.30
2913;DHT22;1466;48.778;9.166;2023-06-14T11:35:16;25.70;52.00
2913;DHT22;1466;48.778;9.166;2023-06-14T11:37:42;25.60;52.10
2913;DHT22;1466;48.778;9.166;2023-06-14T11:40:10;25.70;51.70
2913;DHT22;1466;48.778;9.166;2023-06-14T11:42:38;25.70;51.20
2913;DHT22;1466;48.778;9.166;2023-06-14T11:45:07;26.00;51.80
2913;DHT22;1466;48.778;9.166;2023-06-14T11:47:33;26.20;51.30
2913;DHT22;1466;48.778;9.166;2023-06-14T11:50:00;26.30;51.10
2913;DHT22;1466;48.778;9.166;2023-06-14T11:52:25;26.30;50.50
2913;DHT22;1466;48.778;9.166;2023-06-14T11:54:52;26.40;50.50
2913;DHT22;1466;48.778;9.166;2023-06-14T11:57:18;26.40;50.20
2913;DHT22;1466;48.778;9.166;2023-06-14T11:59:44;26.10;50.60
2913;DHT22;1466;48.778;9.166;2023-06-14T12:02:17;25.90;51.00
2913;DHT22;1466;48.778;9.166;2023-06-14T12:04:46;25.90;51.20
2913;DHT22;1466;48.778;9.166;2023-06-14T12:07:16;25.80;50.90
2913;DHT22;1466;48.778;9.166;2023-06-14T12:12:23;25.40;50.90
2913;DHT22;1466;48.778;9.166;2023-06-14T12:14:51;25.30;51.10
2913;DHT22;1466;48.778;9.166;2023-06-14T12:17:17;25.30;51.80
2913;DHT22;1466;48.778;9.166;2023-06-14T12:19:44;25.30;51.80
2913;DHT22;1466;48.778;9.166;2023-06-14T12:22:11;25.30;51.90
2913;DHT22;1466;48.778;9.166;2023-06-14T12:24:37;25.30;51.90
2913;DHT22;1466;48.778;9.166;2023-06-14T12:27:03;25.10;51.70
2913;DHT22;1466;48.778;9.166;2023-06-14T12:29:30;25.10;51.80
2913;DHT22;1466;48.778;9.166;2023-06-14T12:31:56;25.30;52.10
2913;DHT22;1466;48.778;9.166;2023-06-14T12:34:26;25.50;51.80
2913;DHT22;1466;48.778;9.166;2023-06-14T12:36:53;25.70;51.90
2913;DHT22;1466;48.778;9.166;2023-06-14T12:39:19;25.80;52.10
2913;DHT22;1466;48.778;9.166;2023-06-14T12:41:45;25.70;51.90
2913;DHT22;1466;48.778;9.166;2023-06-14T12:44:12;25.60;52.10
2913;DHT22;1466;48.778;9.166;2023-06-14T12:46:38;25.60;52.20
2913;DHT22;1466;48.778;9.166;2023-06-14T12:49:07;25.70;52.40
2913;DHT22;1466;48.778;9.166;2023-06-14T12:51:33;25.60;51.90
2913;DHT22;1466;48.778;9.166;2023-06-14T12:53:59;25.50;51.70
2913;DHT22;1466;48.778;9.166;2023-06-14T12:56:24;25.50;52.00
2913;DHT22;1466;48.778;9.166;2023-06-14T12:58:51;25.30;51.70
2913;DHT22;1466;48.778;9.166;2023-06-14T13:01:17;25.30;52.00
2913;DHT22;1466;48.778;9.166;2023-06-14T13:03:42;25.50;52.20
2913;DHT22;1466;48.778;9.166;2023-06-14T13:06:08;25.80;52.20
2913;DHT22;1466;48.778;9.166;2023-06-14T13:08:34;26.00;51.90
2913;DHT22;1466;48.778;9.166;2023-06-14T13:10:59;26.10;51.60
2913;DHT22;1466;48.778;9.166;2023-06-14T13:13:25;26.20;51.20
2913;DHT22;1466;48.778;9.166;2023-06-14T13:15:51;26.20;50.80
2913;DHT22;1466;48.778;9.166;2023-06-14T13:18:16;26.10;50.80
2913;DHT22;1466;48.778;9.166;2023-06-14T13:20:42;26.10;50.60
2913;DHT22;1466;48.778;9.166;2023-06-14T13:23:09;26.20;50.70
2913;DHT22;1466;48.778;9.166;2023-06-14T13:25:36;26.30;50.60
2913;DHT22;1466;48.778;9.166;2023-06-14T13:28:03;26.30;50.50
2913;DHT22;1466;48.778;9.166;2023-06-14T13:30:29;26.30;50.40
2913;DHT22;1466;48.778;9.166;2023-06-14T13:32:55;26.30;50.70
2913;DHT22;1466;48.778;9.166;2023-06-14T13:35:21;26.30;51.10
2913;DHT22;1466;48.778;9.166;2023-06-14T13:37:47;26.20;50.80
2913;DHT22;1466;48.778;9.166;2023-06-14T13:40:13;26.00;51.00
2913;DHT22;1466;48.778;9.166;2023-06-14T13:42:38;25.70;51.30
2913;DHT22;1466;48.778;9.166;2023-06-14T13:45:05;25.50;51.60
2913;DHT22;1466;48.778;9.166;2023-06-14T13:47:32;25.50;51.80
2913;DHT22;1466;48.778;9.166;2023-06-14T13:49:58;25.60;51.60
2913;DHT22;1466;48.778;9.166;2023-06-14T13:52:24;25.80;51.50
2913;DHT22;1466;48.778;9.166;2023-06-14T13:54:49;26.00;51.50
2913;DHT22;1466;48.778;9.166;2023-06-14T13:57:16;26.10;51.40
2913;DHT22;1466;48.778;9.166;2023-06-14T13:59:41;26.30;51.40
2913;DHT22;1466;48.778;9.166;2023-06-14T14:02:09;26.50;51.30
2913;DHT22;1466;48.778;9.166;2023-06-14T14:04:35;26.60;51.00
2913;DHT22;1466;48.778;9.166;2023-06-14T14:07:02;26.60;50.50
2913;DHT22;1466;48.778;9.166;2023-06-14T14:09:27;26.60;50.50
2913;DHT22;1466;48.778;9.166;2023-06-14T14:11:53;26.50;50.30
2913;DHT22;1466;48.778;9.166;2023-06-14T14:14:18;26.50;50.60
2913;DHT22;1466;48.778;9.166;2023-06-14T14:16:44;26.50;50.60
2913;DHT22;1466;48.778;9.166;2023-06-14T14:19:09;26.50;50.60
2913;DHT22;1466;48.778;9.166;2023-06-14T14:21:35;26.60;50.50
2913;DHT22;1466;48.778;9.166;2023-06-14T14:24:01;26.60;50.90
2913;DHT22;1466;48.778;9.166;2023-06-14T14:26:27;26.50;50.70
2913;DHT22;1466;48.778;9.166;2023-06-14T14:28:53;26.40;50.90
2913;DHT22;1466;48.778;9.166;2023-06-14T14:31:18;26.30;50.80
2913;DHT22;1466;48.778;9.166;2023-06-14T14:33:44;26.20;51.90
2913;DHT22;1466;48.778;9.166;2023-06-14T14:36:09;26.10;52.20
2913;DHT22;1466;48.778;9.166;2023-06-14T14:38:35;26.10;52.30
2913;DHT22;1466;48.778;9.166;2023-06-14T14:41:01;26.10;52.50
2913;DHT22;1466;48.778;9.166;2023-06-14T14:43:27;26.20;52.80
2913;DHT22;1466;48.778;9.166;2023-06-14T14:45:55;26.30;52.40
2913;DHT22;1466;48.778;9.166;2023-06-14T14:48:20;26.30;52.40
2913;DHT22;1466;48.778;9.166;2023-06-14T14:50:46;26.40;52.40
2913;DHT22;1466;48.778;9.166;2023-06-14T14:53:12;26.50;52.20
2913;DHT22;1466;48.778;9.166;2023-06-14T14:55:38;26.50;52.20
2913;DHT22;1466;48.778;9.166;2023-06-14T14:58:05;26.50;52.20
2913;DHT22;1466;48.778;9.166;2023-06-14T15:00:32;26.50;52.40
2913;DHT22;1466;48.778;9.166;2023-06-14T15:02:57;26.60;52.20
2913;DHT22;1466;48.778;9.166;2023-06-14T15:05:23;26.70;51.90
2913;DHT22;1466;48.778;9.166;2023-06-14T15:07:48;26.60;50.60
2913;DHT22;1466;48.778;9.166;2023-06-14T15:10:14;26.70;50.60
2913;DHT22;1466;48.778;9.166;2023-06-14T15:12:40;26.70;50.00
2913;DHT22;1466;48.778;9.166;2023-06-14T15:15:06;26.60;50.00
2913;DHT22;1466;48.778;9.166;2023-06-14T15:17:32;26.50;50.70
2913;DHT22;1466;48.778;9.166;2023-06-14T15:19:57;26.40;51.60
2913;DHT22;1466;48.778;9.166;2023-06-14T15:22:23;26.20;52.00
2913;DHT22;1466;48.778;9.166;2023-06-14T15:24:48;26.00;52.30
2913;DHT22;1466;48.778;9.166;2023-06-14T15:27:14;26.00;52.30
2913;DHT22;1466;48.778;9.166;2023-06-14T15:29:43;26.20;52.50
2913;DHT22;1466;48.778;9.166;2023-06-14T15:32:09;26.20;52.10
2913;DHT22;1466;48.778;9.166;2023-06-14T15:34:36;25.80;52.20
2913;DHT22;1466;48.778;9.166;2023-06-14T15:37:05;25.80;52.40
2913;DHT22;1466;48.778;9.166;2023-06-14T15:39:31;25.90;52.30
2913;DHT22;1466;48.778;9.166;2023-06-14T15:41:58;25.90;52.00
2913;DHT22;1466;48.778;9.166;2023-06-14T15:44:24;25.90;51.70
2913;DHT22;1466;48.778;9.166;2023-06-14T15:46:49;26.00;51.80
2913;DHT22;1466;48.778;9.166;2023-06-14T15:49:15;26.00;52.60
2913;DHT22;1466;48.778;9.166;2023-06-14T15:51:41;25.90;52.70
2913;DHT22;1466;48.778;9.166;2023-06-14T15:54:06;25.70;53.40
2913;DHT22;1466;48.778;9.166;2023-06-14T15:56:32;25.60;53.00
2913;DHT22;1466;48.778;9.166;2023-06-14T15:58:59;25.40;53.40
2913;DHT22;1466;48.778;9.166;2023-06-14T16:01:26;25.40;53.70
2913;DHT22;1466;48.778;9.166;2023-06-14T16:03:52;25.30;53.50
2913;DHT22;1466;48.778;9.166;2023-06-14T16:06:18;25.30;53.50
2913;DHT22;1466;48.778;9.166;2023-06-14T16:08:44;25.10;53.50
2913;DHT22;1466;48.778;9.166;2023-06-14T16:11:11;25.10;53.70
2913;DHT22;1466;48.778;9.166;2023-06-14T16:13:36;25.10;53.70
2913;DHT22;1466;48.778;9.166;2023-06-14T16:16:02;25.10;53.10
2913;DHT22;1466;48.778;9.166;2023-06-14T16:18:28;25.20;53.00